Time;durP1;ratioP1;P1;durP2;ratioP2;P2;SDS_P1;SDS_P2;PMS_P1;PMS_P2;Temp;Humidity;BMP_temperature;BMP_pressure;BME280_temperature;BME280_humidity;BME280_pressure;Samples;Min_cycle;Max_cycle;Signal;HPM_P1;HPM_P2
2023/01/07 00:01:42;;;;;;;24.67;9.68;;;;;;;5.73;100.00;99309.38;4439329;32;20097;-70
2023/01/07 00:04:12;;;;;;;19.15;9.00;;;;;;;5.80;100.00;99308.91;4439065;32;20102;-70
2023/01/07 00:06:40;;;;;;;18.80;8.60;;;;;;;5.91;100.00;99304.81;4439363;32;20089;-70
2023/01/07 00:09:11;;;;;;;20.08;7.80;;;;;;;6.03;100.00;99307.53;4436063;32;20467;-70
2023/01/07 00:11:41;;;;;;;;;;;;;;;6.17;100.00;99311.88;4424121;32;20104;-70
2023/01/07 00:14:11;;;;;;;17.87;7.25;;;;;;;6.36;100.00;99308.13;4423790;32;19976;-70
2023/01/07 00:16:39;;;;;;;18.35;7.32;;;;;;;6.49;100.00;99314.19;4423803;32;20579;-70
2023/01/07 00:19:08;;;;;;;17.50;7.22;;;;;;;6.62;100.00;99321.25;4423538;32;20176;-70
2023/01/07 00:21:35;;;;;;;14.65;7.22;;;;;;;6.67;100.00;99321.78;4415478;32;20136;-70
2023/01/07 00:24:04;;;;;;;14.68;8.00;;;;;;;6.63;100.00;99323.75;4438967;32;20119;-70
2023/01/07 00:26:34;;;;;;;16.83;7.30;;;;;;;6.65;100.00;99324.50;4438890;32;20157;-70
2023/01/07 00:29:02;;;;;;;15.90;6.62;;;;;;;6.71;100.00;99328.47;4438748;32;20078;-70
2023/01/07 00:31:32;;;;;;;14.48;7.00;;;;;;;6.71;100.00;99331.06;4439017;32;20542;-70
2023/01/07 00:36:29;;;;;;;12.60;7.00;;;;;;;6.73;100.00;99331.81;4438932;32;20868;-70
2023/01/07 00:39:06;;;;;;;15.25;6.95;;;;;;;6.73;100.00;99337.84;4438831;32;20145;-70
2023/01/07 00:41:33;;;;;;;16.65;7.60;;;;;;;6.77;100.00;99332.44;4439115;32;20108;-70
2023/01/07 00:44:02;;;;;;;16.23;7.47;;;;;;;6.73;100.00;99332.63;4438966;32;20526;-70
2023/01/07 00:46:29;;;;;;;14.25;6.95;;;;;;;6.75;100.00;99329.91;4439208;32;20165;-70
2023/01/07 00:48:56;;;;;;;15.57;6.68;;;;;;;6.74;100.00;99338.69;4439069;32;20081;-70
2023/01/07 00:51:24;;;;;;;12.52;6.35;;;;;;;6.73;100.00;99337.00;4438576;32;20972;-70
2023/01/07 00:53:51;;;;;;;13.38;6.57;;;;;;;6.70;100.00;99339.81;4439083;32;20121;-70
2023/01/07 00:56:18;;;;;;;15.40;6.47;;;;;;;6.72;100.00;99335.31;4438869;32;20160;-70
2023/01/07 00:58:45;;;;;;;13.43;6.65;;;;;;;6.70;100.00;99342.41;4438744;32;20081;-70
2023/01/07 01:01:13;;;;;;;16.35;6.50;;;;;;;6.69;100.00;99335.53;4439092;32;20364;-70
2023/01/07 01:03:40;;;;;;;11.60;6.82;;;;;;;6.64;100.00;99342.81;4438840;32;20117;-70
2023/01/07 01:06:13;;;;;;;16.00;6.65;;;;;;;6.67;100.00;99342.62;4438834;32;20132;-70
2023/01/07 01:08:44;;;;;;;14.68;7.05;;;;;;;6.66;100.00;99340.94;4438623;32;20135;-70
2023/01/07 01:11:14;;;;;;;18.08;7.45;;;;;;;6.74;100.00;99333.47;4423566;32;20069;-70
2023/01/07 01:13:42;;;;;;;17.10;6.68;;;;;;;6.72;100.00;99332.72;4423395;32;20495;-70
2023/01/07 01:16:15;;;;;;;11.73;6.87;;;;;;;6.75;100.00;99330.78;4423282;32;20089;-70
2023/01/07 01:18:43;;;;;;;15.40;6.97;;;;;;;6.84;100.00;99333.72;4423167;32;20104;-70
2023/01/07 01:21:12;;;;;;;20.73;7.07;;;;;;;6.84;100.00;99338.91;4426440;32;20089;-70
2023/01/07 01:23:39;;;;;;;16.00;7.18;;;;;;;6.89;100.00;99335.09;4438571;32;20129;-70
2023/01/07 01:26:12;;;;;;;13.02;6.70;;;;;;;6.90;100.00;99333.31;4438527;32;20443;-69
2023/01/07 01:28:40;;;;;;;18.15;7.53;;;;;;;6.84;100.00;99339.75;4438427;32;20158;-70
2023/01/07 01:31:08;;;;;;;12.25;7.15;;;;;;;6.86;100.00;99334.47;4438865;32;20085;-70
2023/01/07 01:33:37;;;;;;;20.10;7.85;;;;;;;6.83;100.00;99335.50;4438879;32;20171;-70
2023/01/07 01:36:06;;;;;;;17.42;7.03;;;;;;;6.82;100.00;99327.78;4438520;32;20104;-70
2023/01/07 01:38:34;;;;;;;19.50;8.07;;;;;;;6.83;100.00;99335.50;4438577;32;20112;-70
2023/01/07 01:41:01;;;;;;;21.37;6.87;;;;;;;6.71;100.00;99325.88;4438718;32;20089;-70
2023/01/07 01:43:39;;;;;;;18.40;7.45;;;;;;;6.66;100.00;99326.16;4438806;32;20102;-70
2023/01/07 01:46:09;;;;;;;16.05;6.90;;;;;;;6.70;100.00;99318.97;4438867;32;20148;-70
2023/01/07 01:48:39;;;;;;;16.35;7.15;;;;;;;6.57;100.00;99317.16;4438706;32;20152;-70
2023/01/07 01:51:08;;;;;;;15.85;7.18;;;;;;;6.49;100.00;99313.38;4424325;32;20204;-70
2023/01/07 01:53:35;;;;;;;14.50;6.95;;;;;;;6.44;100.00;99311.06;4424957;32;20093;-70
2023/01/07 01:56:16;;;;;;;16.08;7.22;;;;;;;6.43;100.00;99306.78;4424509;32;20493;-70
2023/01/07 01:58:51;;;;;;;17.98;6.72;;;;;;;6.38;100.00;99303.66;4424498;32;20090;-70
2023/01/07 02:01:18;;;;;;;14.90;6.47;;;;;;;6.46;100.00;99301.38;4423919;32;20455;-70
2023/01/07 02:03:47;;;;;;;15.18;6.68;;;;;;;6.54;100.00;99299.16;4424967;32;20102;-70
2023/01/07 02:06:22;;;;;;;15.48;6.85;;;;;;;6.49;100.00;99297.75;4438507;32;20123;-70
2023/01/07 02:08:49;;;;;;;12.32;6.60;;;;;;;6.54;100.00;99301.75;4437316;32;20105;-70
2023/01/07 02:11:55;;;;;;;19.20;6.85;;;;;;;6.47;100.00;99295.25;4423263;32;20236;-70
2023/01/07 02:14:34;;;;;;;15.70;7.57;;;;;;;6.42;100.00;99296.47;4422940;32;20195;-70
2023/01/07 02:17:11;;;;;;;16.48;7.07;;;;;;;6.27;100.00;99296.53;4423294;32;20093;-70
2023/01/07 02:19:54;;;;;;;14.93;6.72;;;;;;;6.37;100.00;99292.41;4409369;32;20160;-70
2023/01/07 02:22:36;;;;;;;15.50;6.97;;;;;;;6.29;100.00;99288.62;4433286;32;20101;-70
2023/01/07 02:25:32;;;;;;;16.65;7.93;;;;;;;6.28;100.00;99289.56;4438112;32;20153;-70
2023/01/07 02:28:38;;;;;;;16.05;7.32;;;;;;;6.14;100.00;99280.84;4438214;32;20188;-70
2023/01/07 02:31:41;;;;;;;13.40;6.93;;;;;;;6.07;100.00;99292.59;4438391;32;20116;-70
2023/01/07 02:34:18;;;;;;;12.50;6.60;;;;;;;6.13;100.00;99281.78;4424340;32;20112;-70
2023/01/07 02:36:55;;;;;;;15.57;7.68;;;;;;;6.12;100.00;99284.50;4424392;32;20522;-70
2023/01/07 02:39:57;;;;;;;15.35;7.00;;;;;;;6.04;100.00;99287.53;4424447;32;20168;-70
2023/01/07 02:42:34;;;;;;;15.40;6.50;;;;;;;5.99;100.00;99280.03;4423949;32;20561;-70
2023/01/07 02:45:10;;;;;;;16.80;7.32;;;;;;;5.92;100.00;99281.34;4424361;32;20085;-70
2023/01/07 02:47:41;;;;;;;14.77;7.65;;;;;;;5.94;100.00;99291.63;4424042;32;20173;-70
2023/01/07 02:50:08;;;;;;;15.60;8.13;;;;;;;5.91;100.00;99289.22;4424292;32;20089;-70
2023/01/07 02:52:36;;;;;;;16.80;7.87;;;;;;;5.83;100.00;99287.94;4437949;32;20120;-70
2023/01/07 02:55:10;;;;;;;19.05;8.18;;;;;;;5.79;100.00;99286.44;4438105;32;20771;-70
2023/01/07 02:57:56;;;;;;;17.40;7.30;;;;;;;5.65;100.00;99287.28;4438302;32;20139;-70
2023/01/07 03:00:40;;;;;;;17.60;7.57;;;;;;;5.59;100.00;99286.81;4437966;32;20472;-70
2023/01/07 03:03:16;;;;;;;17.92;7.82;;;;;;;5.47;100.00;99283.19;4437813;32;20156;-70
2023/01/07 03:06:02;;;;;;;16.83;7.87;;;;;;;5.42;100.00;99275.69;4437904;32;20108;-70
2023/01/07 03:09:00;;;;;;;16.30;8.20;;;;;;;5.45;100.00;99278.09;4437924;32;20140;-70
2023/01/07 03:11:33;;;;;;;20.55;8.52;;;;;;;5.48;100.00;99275.31;4422195;32;20090;-70
2023/01/07 03:14:23;;;;;;;15.48;8.38;;;;;;;5.43;100.00;99272.13;4422676;32;20620;-70
2023/01/07 03:16:57;;;;;;;17.65;7.95;;;;;;;5.37;100.00;99269.91;4410378;32;20471;-70
2023/01/07 03:19:37;;;;;;;16.73;7.68;;;;;;;5.42;100.00;99269.63;4424193;32;20093;-70
2023/01/07 03:22:07;;;;;;;14.18;6.97;;;;;;;5.41;100.00;99268.81;4416228;32;20494;-70
2023/01/07 03:24:34;;;;;;;20.20;7.90;;;;;;;5.43;100.00;99271.31;4423896;32;20136;-70
2023/01/07 03:27:03;;;;;;;22.35;8.73;;;;;;;5.41;100.00;99261.00;4424014;32;20524;-70
2023/01/07 03:29:31;;;;;;;20.85;8.90;;;;;;;5.38;100.00;99258.59;4410355;32;20475;-70
2023/01/07 03:32:31;;;;;;;18.83;7.57;;;;;;;5.38;100.00;99257.78;4423987;32;20592;-70
2023/01/07 03:34:59;;;;;;;15.98;7.07;;;;;;;5.39;100.00;99262.00;4346332;33;20126;-70
2023/01/07 03:37:27;;;;;;;16.80;7.00;;;;;;;5.34;100.00;99251.91;4334225;33;20294;-70
2023/01/07 03:39:55;;;;;;;13.75;7.07;;;;;;;5.28;100.00;99257.47;4334525;33;20137;-70
2023/01/07 03:42:39;;;;;;;16.12;6.95;;;;;;;5.28;100.00;99254.87;4333995;33;20126;-70
2023/01/07 03:45:14;;;;;;;14.27;7.33;;;;;;;5.24;100.00;99256.81;4346474;33;20535;-70
2023/01/07 03:47:48;;;;;;;13.02;6.95;;;;;;;5.25;100.00;99252.47;4334339;33;20088;-70
2023/01/07 03:50:16;;;;;;;11.45;6.35;;;;;;;5.21;100.00;99257.00;4346526;33;20107;-70
2023/01/07 03:52:45;;;;;;;14.57;6.53;;;;;;;5.18;100.00;99259.78;4346244;33;20087;-70
2023/01/07 03:55:12;;;;;;;14.05;7.25;;;;;;;5.25;100.00;99255.06;4346424;33;20145;-70
2023/01/07 03:57:39;;;;;;;14.93;6.65;;;;;;;5.28;100.00;99247.94;4346128;33;20515;-70
2023/01/07 04:00:09;;;;;;;17.55;7.28;;;;;;;5.29;100.00;99256.56;4346214;33;20103;-70
2023/01/07 04:02:40;;;;;;;14.25;7.15;;;;;;;5.32;100.00;99248.56;4346121;33;20111;-70
2023/01/07 04:05:09;;;;;;;16.77;7.57;;;;;;;5.30;100.00;99253.03;4346373;33;20785;-70
2023/01/07 04:07:37;;;;;;;14.63;7.40;;;;;;;5.30;100.00;99251.25;4346124;33;20151;-70
2023/01/07 04:10:05;;;;;;;18.52;7.72;;;;;;;5.27;100.00;99261.84;4355042;32;20539;-70
2023/01/07 04:12:33;;;;;;;18.83;7.55;;;;;;;5.20;100.00;99259.69;4434715;32;20156;-70
2023/01/07 04:15:00;;;;;;;13.20;6.28;;;;;;;5.14;100.00;99264.31;4439257;32;20097;-70
2023/01/07 04:17:27;;;;;;;14.07;7.47;;;;;;;5.06;100.00;99263.13;4438970;32;20116;-70
2023/01/07 04:19:55;;;;;;;14.55;7.43;;;;;;;5.11;100.00;99266.25;4438957;32;20153;-70
2023/01/07 04:22:22;;;;;;;13.88;6.72;;;;;;;5.11;100.00;99264.50;4428360;32;20132;-70
2023/01/07 04:24:49;;;;;;;15.55;7.25;;;;;;;5.10;100.00;99261.97;4423229;32;20102;-70
2023/01/07 04:27:17;;;;;;;16.85;7.93;;;;;;;5.08;100.00;99272.47;4423747;32;20089;-70
2023/01/07 04:29:44;;;;;;;14.05;7.25;;;;;;;5.04;100.00;99267.53;4423683;32;20151;-70
2023/01/07 04:32:11;;;;;;;17.12;7.40;;;;;;;5.06;100.00;99273.50;4423766;32;20128;-70
2023/01/07 04:34:39;;;;;;;15.88;8.38;;;;;;;5.03;100.00;99266.72;4423604;32;20128;-70
2023/01/07 04:37:06;;;;;;;16.08;7.75;;;;;;;5.03;100.00;99265.88;4423870;32;20151;-70
2023/01/07 04:39:33;;;;;;;17.27;8.60;;;;;;;5.01;100.00;99263.38;4423823;32;20187;-70
2023/01/07 04:42:01;;;;;;;14.65;7.37;;;;;;;4.97;100.00;99267.06;4423792;32;20120;-70
2023/01/07 04:44:28;;;;;;;18.08;8.00;;;;;;;4.96;100.00;99270.59;4423336;32;20114;-70
2023/01/07 04:46:55;;;;;;;21.80;9.05;;;;;;;4.87;100.00;99265.94;4423811;32;20106;-70
2023/01/07 04:49:23;;;;;;;19.50;9.13;;;;;;;4.88;100.00;99270.22;4423694;32;20160;-70
2023/01/07 04:51:51;;;;;;;18.48;8.20;;;;;;;4.89;100.00;99269.25;4423784;32;20171;-70
2023/01/07 04:54:20;;;;;;;17.12;8.50;;;;;;;4.86;100.00;99267.69;4423593;32;20093;-70
2023/01/07 04:56:48;;;;;;;15.80;8.05;;;;;;;4.85;100.00;99266.03;4423580;32;20151;-70
2023/01/07 04:59:16;;;;;;;18.60;8.23;;;;;;;4.86;100.00;99262.50;4423464;32;20098;-70
2023/01/07 05:01:43;;;;;;;17.45;8.75;;;;;;;4.87;100.00;99266.75;4423545;32;20117;-70
2023/01/07 05:04:11;;;;;;;17.40;8.50;;;;;;;4.88;100.00;99265.84;4423593;32;20101;-70
2023/01/07 05:06:39;;;;;;;15.73;8.07;;;;;;;4.89;100.00;99267.53;4423790;32;20172;-70
2023/01/07 05:09:07;;;;;;;19.58;8.23;;;;;;;4.91;100.00;99267.44;4426668;32;20121;-70
2023/01/07 05:11:34;;;;;;;15.57;7.97;;;;;;;4.96;100.00;99274.00;4438920;32;20152;-70
2023/01/07 05:14:02;;;;;;;15.98;8.60;;;;;;;4.97;100.00;99270.50;4438965;32;20120;-70
2023/01/07 05:16:30;;;;;;;20.08;8.73;;;;;;;4.90;100.00;99268.34;4439087;32;20106;-70
2023/01/07 05:18:58;;;;;;;19.98;9.80;;;;;;;4.93;100.00;99268.16;4438807;32;20117;-70
2023/01/07 05:21:25;;;;;;;15.13;8.55;;;;;;;4.83;100.00;99272.22;4434153;32;20090;-70
2023/01/07 05:23:52;;;;;;;17.45;8.60;;;;;;;4.89;100.00;99277.91;4423286;32;20173;-70
2023/01/07 05:26:21;;;;;;;18.52;9.13;;;;;;;4.82;100.00;99265.38;4423112;32;20102;-69
2023/01/07 05:28:48;;;;;;;17.23;8.35;;;;;;;4.71;100.00;99274.59;4423531;32;20159;-70
2023/01/07 05:31:16;;;;;;;19.35;8.68;;;;;;;4.74;100.00;99274.44;4423525;32;20124;-70
2023/01/07 05:33:43;;;;;;;17.52;8.98;;;;;;;4.70;100.00;99275.50;4423565;32;20166;-70
2023/01/07 05:36:11;;;;;;;19.05;9.05;;;;;;;4.67;100.00;99283.47;4422453;32;20093;-70
2023/01/07 05:38:38;;;;;;;17.92;9.32;;;;;;;4.60;100.00;99287.34;4423403;32;20089;-70
2023/01/07 05:41:07;;;;;;;20.00;8.82;;;;;;;4.46;100.00;99282.09;4423529;32;20121;-70
2023/01/07 05:43:35;;;;;;;18.10;9.05;;;;;;;4.46;100.00;99280.31;4423420;32;20107;-70
2023/01/07 05:46:02;;;;;;;18.62;9.40;;;;;;;4.47;100.00;99291.53;4423257;32;20098;-70
2023/01/07 05:48:30;;;;;;;16.92;8.82;;;;;;;4.43;100.00;99286.50;4423143;32;20842;-70
2023/01/07 05:50:57;;;;;;;18.62;8.90;;;;;;;4.46;100.00;99288.12;4423126;32;20151;-70
2023/01/07 05:53:24;;;;;;;16.30;8.98;;;;;;;4.47;100.00;99286.34;4423059;32;20152;-70
2023/01/07 05:55:58;;;;;;;20.23;9.30;;;;;;;4.50;100.00;99292.22;4409273;32;20414;-70
2023/01/07 05:58:26;;;;;;;20.08;8.90;;;;;;;4.32;100.00;99291.47;4422846;32;20419;-70
2023/01/07 06:00:54;;;;;;;23.05;9.77;;;;;;;4.33;100.00;99284.53;4423054;32;20436;-70
2023/01/07 06:03:21;;;;;;;22.17;9.52;;;;;;;4.35;100.00;99288.72;4422984;32;20102;-70
2023/01/07 06:05:49;;;;;;;22.98;9.90;;;;;;;4.38;100.00;99290.31;4422917;32;20224;-70
2023/01/07 06:08:16;;;;;;;19.67;9.70;;;;;;;4.30;100.00;99287.28;4422947;32;20098;-70
2023/01/07 06:10:43;;;;;;;19.15;9.57;;;;;;;4.37;100.00;99289.44;4436221;32;20477;-70
2023/01/07 06:13:10;;;;;;;17.52;9.48;;;;;;;4.43;100.00;99296.06;4438272;32;20101;-70
2023/01/07 06:15:37;;;;;;;19.65;9.73;;;;;;;4.44;100.00;99287.38;4438190;32;20105;-70
2023/01/07 06:18:05;;;;;;;17.52;9.23;;;;;;;4.49;100.00;99290.53;4438462;32;20097;-70
2023/01/07 06:20:35;;;;;;;20.73;9.35;;;;;;;4.46;100.00;99284.69;4438086;32;20085;-70
2023/01/07 06:23:03;;;;;;;18.45;9.05;;;;;;;4.43;100.00;99289.09;4423079;32;20105;-70
2023/01/07 06:25:31;;;;;;;17.75;9.02;;;;;;;4.35;100.00;99293.91;4422572;32;20167;-70
2023/01/07 06:27:58;;;;;;;21.87;9.20;;;;;;;4.33;100.00;99290.56;4422604;32;20447;-70
2023/01/07 06:30:25;;;;;;;17.50;8.55;;;;;;;4.37;100.00;99293.81;4422585;32;20102;-70
2023/01/07 06:32:53;;;;;;;19.15;8.82;;;;;;;4.32;100.00;99294.06;4422926;32;20106;-70
2023/01/07 06:35:20;;;;;;;18.20;9.32;;;;;;;4.33;100.00;99294.91;4422588;32;20086;-70
2023/01/07 06:37:47;;;;;;;16.75;8.52;;;;;;;4.26;100.00;99290.06;4422793;32;20149;-70
2023/01/07 06:40:14;;;;;;;16.30;8.18;;;;;;;4.20;100.00;99289.56;4422581;32;20144;-71
2023/01/07 06:42:41;;;;;;;20.08;9.13;;;;;;;4.03;100.00;99283.53;4422756;32;20120;-70
2023/01/07 06:45:09;;;;;;;19.02;8.73;;;;;;;3.92;100.00;99285.84;4422590;32;20098;-70
2023/01/07 06:47:37;;;;;;;21.60;9.27;;;;;;;3.88;100.00;99274.00;4422079;32;20525;-70
2023/01/07 06:50:04;;;;;;;21.30;9.35;;;;;;;3.92;100.00;99278.06;4422437;32;20156;-70
2023/01/07 06:52:32;;;;;;;18.27;8.95;;;;;;;4.02;100.00;99271.47;4422841;32;20181;-70
2023/01/07 06:54:59;;;;;;;15.68;8.95;;;;;;;3.94;100.00;99276.25;4422475;32;20163;-70
2023/01/07 06:57:26;;;;;;;18.80;9.23;;;;;;;4.09;100.00;99282.38;4408771;32;20602;-70
2023/01/07 06:59:53;;;;;;;20.90;9.48;;;;;;;4.16;100.00;99285.44;4422064;32;20501;-70
2023/01/07 07:02:23;;;;;;;22.70;9.57;;;;;;;4.31;100.00;99289.78;4422488;32;20094;-70
2023/01/07 07:04:50;;;;;;;21.25;10.27;;;;;;;4.34;100.00;99287.03;4422542;32;20123;-70
2023/01/07 07:07:18;;;;;;;22.33;10.30;;;;;;;4.46;100.00;99289.88;4422414;32;20101;-70
2023/01/07 07:09:46;;;;;;;19.98;10.18;;;;;;;4.51;100.00;99291.31;4429522;32;20165;-70
2023/01/07 07:12:13;;;;;;;22.55;10.35;;;;;;;4.73;100.00;99287.50;4437571;32;20089;-70
2023/01/07 07:14:40;;;;;;;18.95;10.43;;;;;;;4.88;100.00;99290.97;4437664;32;20498;-70
2023/01/07 07:17:08;;;;;;;23.17;10.25;;;;;;;4.98;100.00;99292.94;4437528;32;20105;-70
2023/01/07 07:19:35;;;;;;;20.65;9.05;;;;;;;5.13;100.00;99291.22;4437411;32;20098;-70
2023/01/07 07:22:02;;;;;;;18.75;10.50;;;;;;;5.26;100.00;99296.53;4428923;32;20530;-70
2023/01/07 07:24:31;;;;;;;19.65;8.52;;;;;;;5.39;100.00;99293.19;4422285;32;20155;-70
2023/01/07 07:26:59;;;;;;;16.10;8.63;;;;;;;5.54;100.00;99301.84;4421856;32;20145;-69
2023/01/07 07:29:26;;;;;;;22.00;10.32;;;;;;;5.72;100.00;99300.72;4422254;32;20106;-70
2023/01/07 07:31:53;;;;;;;17.42;8.95;;;;;;;5.75;100.00;99304.91;4422036;32;20157;-70
2023/01/07 07:34:20;;;;;;;16.25;8.10;;;;;;;5.85;100.00;99309.47;4422076;32;20114;-70
2023/01/07 07:36:47;;;;;;;16.77;8.80;;;;;;;5.99;100.00;99308.63;4421742;32;20101;-70
2023/01/07 07:39:15;;;;;;;16.10;8.20;;;;;;;6.08;100.00;99309.84;4421894;32;20098;-70
2023/01/07 07:41:42;;;;;;;23.12;12.20;;;;;;;6.29;100.00;99306.84;4421816;32;20155;-70
2023/01/07 07:44:09;;;;;;;21.05;10.55;;;;;;;6.45;100.00;99314.50;4421965;32;20098;-70
2023/01/07 07:46:36;;;;;;;16.67;9.20;;;;;;;6.56;100.00;99309.47;4421900;32;20477;-70
2023/01/07 07:49:06;;;;;;;16.15;7.37;;;;;;;6.68;100.00;99307.84;4421790;32;20124;-70
2023/01/07 07:51:33;;;;;;;14.63;8.27;;;;;;;6.83;100.00;99313.81;4421609;32;20171;-70
2023/01/07 07:54:00;;;;;;;13.95;6.85;;;;;;;6.98;100.00;99312.81;4421704;32;20147;-70
2023/01/07 07:56:27;;;;;;;13.73;6.35;;;;;;;7.08;100.00;99308.66;4421625;32;20115;-70
2023/01/07 07:58:54;;;;;;;11.43;6.68;;;;;;;7.22;100.00;99312.12;4421897;32;20155;-70
2023/01/07 08:01:22;;;;;;;10.75;6.32;;;;;;;7.34;100.00;99310.47;4423338;32;20098;-70
2023/01/07 08:03:49;;;;;;;12.52;5.97;;;;;;;7.40;100.00;99321.34;4424101;32;20196;-70
2023/01/07 08:06:16;;;;;;;12.98;6.22;;;;;;;7.50;100.00;99313.72;4423763;32;20108;-70
2023/01/07 08:08:43;;;;;;;13.27;6.22;;;;;;;7.57;100.00;99312.38;4424441;32;20106;-70
2023/01/07 08:11:11;;;;;;;10.77;6.28;;;;;;;7.73;100.00;99306.91;4439040;32;20191;-70
2023/01/07 08:13:38;;;;;;;12.02;5.90;;;;;;;7.76;100.00;99311.91;4439179;32;20115;-70
2023/01/07 08:16:05;;;;;;;14.18;6.43;;;;;;;7.90;100.00;99321.44;4439062;32;20537;-70
2023/01/07 08:18:33;;;;;;;11.07;5.68;;;;;;;8.05;100.00;99310.84;4439272;32;20929;-70
2023/01/07 08:21:00;;;;;;;10.10;5.30;;;;;;;8.12;100.00;99307.69;4437102;32;20077;-70
2023/01/07 08:23:27;;;;;;;8.82;5.35;;;;;;;8.24;100.00;99300.78;4423750;32;20090;-70
2023/01/07 08:26:01;;;;;;;11.45;5.65;;;;;;;8.31;100.00;99302.00;4423418;32;20101;-70
2023/01/07 08:28:29;;;;;;;;;;;;;;;8.37;100.00;99300.72;4423761;32;20093;-70
2023/01/07 08:31:01;;;;;;;12.65;6.18;;;;;;;8.40;100.00;99303.12;4423686;32;19989;-70
2023/01/07 08:33:28;;;;;;;9.65;5.40;;;;;;;8.39;100.00;99301.47;4423760;32;20070;-70
2023/01/07 08:35:56;;;;;;;12.27;6.43;;;;;;;8.30;100.00;99300.34;4423605;32;20160;-70
2023/01/07 08:38:24;;;;;;;12.43;5.97;;;;;;;8.34;100.00;99301.78;4423679;32;20172;-70
2023/01/07 08:40:51;;;;;;;11.73;6.07;;;;;;;8.34;100.00;99298.31;4423583;32;20427;-70
2023/01/07 08:43:18;;;;;;;10.55;5.70;;;;;;;8.37;100.00;99302.50;4423691;32;20078;-70
2023/01/07 08:45:50;;;;;;;10.73;6.28;;;;;;;8.44;100.00;99306.38;4423644;32;20120;-70
2023/01/07 08:48:17;;;;;;;11.38;5.78;;;;;;;8.53;100.00;99306.53;4423500;32;20144;-70
2023/01/07 08:50:49;;;;;;;13.65;6.28;;;;;;;8.67;100.00;99310.75;4423434;32;20094;-70
2023/01/07 08:53:16;;;;;;;12.60;6.82;;;;;;;8.64;100.00;99307.56;4423585;32;20481;-70
2023/01/07 08:55:44;;;;;;;11.05;6.62;;;;;;;8.70;100.00;99307.97;4423827;32;20553;-70
2023/01/07 08:58:11;;;;;;;12.70;6.32;;;;;;;8.75;100.00;99302.41;4423263;32;20477;-70
2023/01/07 09:00:39;;;;;;;10.90;6.12;;;;;;;8.69;100.00;99298.44;4423425;32;20161;-70
2023/01/07 09:03:06;;;;;;;13.45;6.22;;;;;;;8.65;100.00;99299.59;4423459;32;20097;-70
2023/01/07 09:05:34;;;;;;;15.15;6.35;;;;;;;8.65;100.00;99299.59;4423521;32;20090;-70
2023/01/07 09:08:02;;;;;;;11.30;6.25;;;;;;;8.77;100.00;99308.31;4423484;32;20163;-70
2023/01/07 09:10:30;;;;;;;14.50;6.93;;;;;;;8.87;100.00;99298.88;4435251;32;20164;-70
2023/01/07 09:12:57;;;;;;;12.35;6.97;;;;;;;9.03;100.00;99295.94;4438672;32;20101;-70
2023/01/07 09:15:24;;;;;;;12.95;5.93;;;;;;;9.19;100.00;99294.78;4438779;32;20105;-70
2023/01/07 09:17:51;;;;;;;11.52;6.22;;;;;;;9.13;100.00;99292.63;4438548;32;20096;-70
2023/01/07 09:20:19;;;;;;;9.63;6.00;;;;;;;9.23;100.00;99304.06;4438651;32;20081;-70
2023/01/07 09:22:46;;;;;;;12.93;6.68;;;;;;;9.36;100.00;99298.78;4425417;32;20123;-70
2023/01/07 09:25:13;;;;;;;11.05;6.20;;;;;;;9.53;100.00;99294.88;4423338;32;20156;-70
2023/01/07 09:27:41;;;;;;;12.23;6.72;;;;;;;9.56;100.00;99295.44;4423177;32;20151;-70
2023/01/07 09:30:08;;;;;;;12.85;6.70;;;;;;;9.68;100.00;99293.69;4423277;32;20105;-70
2023/01/07 09:32:36;;;;;;;12.18;6.43;;;;;;;9.76;100.00;99288.72;4423534;32;20117;-70
2023/01/07 09:35:04;;;;;;;11.60;6.12;;;;;;;9.89;100.00;99288.56;4423307;32;20106;-70
2023/01/07 09:37:31;;;;;;;15.10;8.32;;;;;;;10.00;100.00;99292.97;4423082;32;20167;-70
2023/01/07 09:40:02;;;;;;;15.68;8.75;;;;;;;10.03;100.00;99287.47;4423214;32;20098;-70
2023/01/07 09:42:52;;;;;;;15.27;8.18;;;;;;;9.90;100.00;99292.84;4423377;32;20115;-70
2023/01/07 09:45:26;;;;;;;16.27;8.60;;;;;;;9.95;100.00;99285.47;4423232;32;20801;-70
2023/01/07 09:47:55;;;;;;;16.60;9.73;;;;;;;9.91;100.00;99283.22;4409373;32;20168;-70
2023/01/07 09:50:26;;;;;;;18.37;7.95;;;;;;;9.93;100.00;99276.91;4409302;32;20098;-70
2023/01/07 09:52:56;;;;;;;12.77;7.32;;;;;;;9.97;100.00;99272.25;4423036;32;20495;-70
2023/01/07 09:55:39;;;;;;;15.80;6.95;;;;;;;9.94;100.00;99267.25;4409321;32;20181;-70
2023/01/07 09:58:26;;;;;;;13.38;6.80;;;;;;;10.03;100.00;99263.09;4411451;32;20112;-70
2023/01/07 10:00:56;;;;;;;13.40;7.28;;;;;;;10.00;100.00;99266.78;4423057;32;20098;-70
2023/01/07 10:03:23;;;;;;;12.70;7.18;;;;;;;10.03;100.00;99261.31;4422815;32;20093;-70
2023/01/07 10:06:17;;;;;;;12.77;7.37;;;;;;;10.15;100.00;99261.31;4422974;32;20082;-70
2023/01/07 10:09:04;;;;;;;14.68;7.32;;;;;;;10.20;100.00;99257.34;4412581;32;20101;-70
2023/01/07 10:12:05;;;;;;;12.77;6.45;;;;;;;10.35;100.00;99252.69;4438481;32;20166;-70
2023/01/07 10:15:03;;;;;;;14.82;7.57;;;;;;;10.34;100.00;99255.44;4374862;32;20477;-70
2023/01/07 10:18:08;;;;;;;13.18;6.87;;;;;;;10.44;100.00;99251.12;4374740;32;20191;-70
2023/01/07 10:20:53;;;;;;;12.00;6.87;;;;;;;10.52;100.00;99256.56;4362736;32;20110;-70
2023/01/07 10:23:27;;;;;;;10.27;6.62;;;;;;;10.64;100.00;99254.72;4359616;32;20484;-70
2023/01/07 10:25:56;;;;;;;13.20;6.35;;;;;;;10.66;100.00;99247.59;4347908;32;20087;-70
2023/01/07 10:28:40;;;;;;;12.52;6.50;;;;;;;10.71;100.00;99241.97;4359594;32;20178;-70
2023/01/07 10:31:21;;;;;;;12.65;6.60;;;;;;;10.74;100.00;99245.16;4347864;32;20095;-70
2023/01/07 10:33:50;;;;;;;12.00;6.30;;;;;;;10.80;100.00;99242.03;4359964;32;20099;-70
2023/01/07 10:36:22;;;;;;;8.95;5.45;;;;;;;10.85;100.00;99235.59;4359888;32;20087;-70
2023/01/07 10:39:28;;;;;;;9.85;5.62;;;;;;;10.98;100.00;99231.00;4360022;32;20106;-70
2023/01/07 10:41:55;;;;;;;14.35;6.03;;;;;;;11.01;100.00;99230.75;4315708;33;20130;-70
2023/01/07 10:44:25;;;;;;;10.70;5.43;;;;;;;10.99;100.00;99230.87;4315583;33;20582;-70
2023/01/07 10:47:29;;;;;;;9.00;5.47;;;;;;;11.06;100.00;99233.78;4315712;33;20180;-70
2023/01/07 10:50:06;;;;;;;10.52;5.37;;;;;;;11.11;100.00;99229.00;4338301;32;20115;-70
2023/01/07 10:52:44;;;;;;;8.48;5.18;;;;;;;11.29;100.00;99225.78;4374812;32;20114;-70
2023/01/07 10:55:33;;;;;;;11.90;6.70;;;;;;;11.38;100.00;99217.13;4374721;32;21179;-70
2023/01/07 10:58:02;;;;;;;14.15;7.82;;;;;;;11.41;100.00;99219.47;4362251;32;20758;-70
2023/01/07 11:00:29;;;;;;;13.77;7.97;;;;;;;11.43;100.00;99211.47;4374543;32;20302;-70
2023/01/07 11:02:57;;;;;;;13.27;7.62;;;;;;;11.53;100.00;99207.94;4374657;32;20126;-70
2023/01/07 11:05:27;;;;;;;13.82;7.82;;;;;;;11.52;100.00;99211.53;4374551;32;20090;-70
2023/01/07 11:07:56;;;;;;;11.02;6.32;;;;;;;11.60;100.00;99207.44;4362275;32;20110;-70
2023/01/07 11:10:24;;;;;;;11.10;6.37;;;;;;;11.60;100.00;99202.19;4372802;32;20142;-70
2023/01/07 11:12:57;;;;;;;9.82;5.50;;;;;;;11.56;100.00;99198.16;4376996;32;20168;-70
2023/01/07 11:15:29;;;;;;;9.97;5.10;;;;;;;11.57;100.00;99199.78;4377263;32;21028;-70
2023/01/07 11:18:34;;;;;;;10.90;5.18;;;;;;;11.59;100.00;99188.19;4388443;32;20185;-70
2023/01/07 11:21:02;;;;;;;11.88;5.75;;;;;;;11.64;100.00;99193.06;4424061;32;20172;-70
2023/01/07 11:23:33;;;;;;;8.13;5.50;;;;;;;11.64;100.00;99185.19;4437613;32;20570;-70
2023/01/07 11:26:12;;;;;;;10.45;6.03;;;;;;;11.67;100.00;99182.28;4437496;32;20146;-70
2023/01/07 11:28:42;;;;;;;11.32;6.15;;;;;;;11.60;100.00;99181.19;4423490;32;20093;-70
2023/01/07 11:31:09;;;;;;;8.75;5.93;;;;;;;11.62;100.00;99174.00;4423820;32;20088;-70
2023/01/07 11:33:45;;;;;;;10.73;6.18;;;;;;;11.68;100.00;99179.53;4437404;32;20610;-70
2023/01/07 11:36:42;;;;;;;11.88;5.68;;;;;;;11.74;100.00;99172.91;4427618;32;20088;-70
2023/01/07 11:39:17;;;;;;;11.43;5.80;;;;;;;11.72;100.00;99167.81;4439398;32;20423;-70
2023/01/07 11:45:12;;;;;;;10.38;5.50;;;;;;;11.84;100.00;99160.66;4439407;32;20161;-70
2023/01/07 11:47:48;;;;;;;13.43;8.00;;;;;;;11.86;100.00;99165.75;4439602;32;20142;-70
2023/01/07 11:50:29;;;;;;;15.27;8.07;;;;;;;11.97;100.00;99159.59;4425322;32;20074;-70